Latest Coastal Weather Observations for Hindmarsh Island

IDS60701

Issued at 7:15 pm CDT Sunday 23 November 2014 (issued every 10 minutes, with the page automatically refreshed every 10 minutes)

About coastal observations | Map of coastal stations | Coastal observations for SA | Marine services | Other Formats
Station Details ID: 023894 Name: HINDMARSH ISLAND AWS Lat: -35.52 Lon: 138.82 Height: 11.0 m
Data from the previous 72 hours. | See also: Recent months at Hindmarsh Island
Date/Time
CDT
Temp

°C
Wind Pressure Rain
since 9am
mm
Weather Cloud Vis
km
Sea
Height
m
Swell
Dir
 
Speed
knots
Gust
knots
hPa Trend Height
m
Period
s
Dir
23/07:00pm 19.7 SE 12 14 1009.5 - 0.0 - - - - - - -
23/06:30pm 20.9 SE 10 11 1009.8 - 0.0 - - - - - - -
23/06:00pm 20.4 S 9 11 1010.1 - 0.0 - - - - - - -
23/05:30pm 20.3 S 7 9 1010.4 - 0.0 - - - - - - -
23/05:00pm 20.2 SSE 6 7 1010.6 - 0.0 - - - - - - -
23/04:30pm 21.2 S 9 11 1010.7 - 0.0 - - - - - - -
23/04:00pm 20.8 S 7 9 1011.6 - 0.0 - - - - - - -
23/03:30pm 21.2 S 8 11 1011.9 - 0.0 - - - - - - -
23/03:00pm 21.3 S 11 13 1011.7 - 0.0 - - - - - - -
23/02:30pm 21.4 S 14 17 1011.5 - 0.0 - - - - - - -
23/02:00pm 21.6 S 14 17 1011.7 - 0.0 - - - - - - -
23/01:30pm 21.4 S 13 15 1012.2 - 0.0 - - - - - - -
23/01:00pm 21.0 S 10 12 1012.5 - 0.0 - - - - - - -
23/12:30pm 21.5 S 12 14 1012.5 - 0.0 - - - - - - -
23/12:00pm 21.0 SSE 10 12 1012.5 - 0.0 - - - - - - -
23/11:30am 20.9 SSE 10 11 1012.6 - 0.0 - - - - - - -
23/11:00am 20.3 S 11 13 1012.4 - 0.0 - - - - - - -
23/10:30am 20.0 S 9 11 1012.1 - 0.0 - - - - - - -
23/10:00am 19.4 SSE 8 10 1012.3 - 0.0 - - - - - - -
23/09:30am 19.0 S 5 7 1012.7 - 0.0 - - - - - - -
23/09:00am 18.1 S 4 6 1012.6 - 0.4 Fine Partly cloudy 2 - - - -
23/08:30am 18.0 SSE 4 6 1012.7 - 0.4 - - - - - - -
23/08:00am 16.6 NNW 3 5 1012.7 - 0.4 - - - - - - -
23/07:30am 15.3 NNW 3 5 1012.7 - 0.4 - - - - - - -
23/07:00am 13.9 NNW 4 5 1012.6 - 0.4 - - - - - - -
23/06:30am 12.8 NNW 5 6 1012.6 - 0.4 - - - - - - -
23/06:00am 12.7 N 5 6 1012.2 - 0.4 - - - - - - -
23/05:30am 12.9 NNW 5 6 1012.0 - 0.4 - - - - - - -
23/05:00am 13.4 NW 5 6 1011.9 - 0.4 - - - - - - -
23/04:30am 13.4 NW 5 6 1011.7 - 0.4 - - - - - - -
23/04:00am 13.6 NW 5 5 1011.8 - 0.4 - - - - - - -
23/03:30am 13.7 NW 5 5 1011.6 - 0.4 - - - - - - -
23/03:00am 14.2 NNW 5 6 1011.6 - 0.4 - - - - - - -
23/02:30am 15.4 SSW 6 7 1011.7 - 0.4 - - - - - - -
23/02:00am 15.5 SSW 6 7 1011.8 - 0.4 - - - - - - -
23/01:30am 15.6 SSW 6 8 1012.1 - 0.4 - - - - - - -
23/01:00am 15.9 SW 8 10 1012.4 - 0.4 - - - - - - -
23/12:30am 16.1 SSW 8 10 1012.4 - 0.4 - - - - - - -
23/12:00am 16.3 SSW 10 11 1012.4 - 0.4 - - - - - - -
 
Date/Time
CDT
Temp

°C
Wind Pressure Rain
since 9am
mm
Weather Cloud Vis
km
Sea
Height
m
Swell
Dir
 
Speed
knots
Gust
knots
hPa Trend Height
m
Period
s
Dir
22/11:30pm 16.5 SSW 12 14 1012.4 - 0.4 - - - - - - -
22/11:00pm 16.6 SSW 11 13 1012.5 - 0.4 - - - - - - -
22/10:30pm 16.8 SSW 11 13 1012.6 - 0.4 - - - - - - -
22/10:00pm 16.7 SSW 13 15 1012.2 - 0.4 - - - - - - -
22/09:30pm 16.7 SSW 11 14 1011.8 - 0.4 - - - - - - -
22/09:00pm 16.8 SW 11 13 1011.2 - 0.4 - - - - - - -
22/08:30pm 16.8 SW 11 13 1010.9 - 0.4 - - - - - - -
22/08:00pm 17.1 SW 13 16 1010.3 - 0.4 - - - - - - -
22/07:30pm 17.8 SW 16 20 1009.8 - 0.4 - - - - - - -
22/07:00pm 18.3 SSW 17 20 1009.3 - 0.4 - - - - - - -
22/06:30pm 18.1 SW 20 24 1009.0 - 0.4 - - - - - - -
22/06:00pm 19.9 SSW 18 22 1008.4 - 0.4 - - - - - - -
22/05:30pm 20.0 SW 17 22 1008.0 - 0.4 - - - - - - -
22/05:00pm 20.1 SSW 18 22 1007.5 - 0.4 - - - - - - -
22/04:30pm 21.6 SSW 15 19 1007.0 - 0.4 - - - - - - -
22/04:00pm 23.6 SW 13 17 1006.5 - 0.4 - - - - - - -
22/03:30pm 26.7 WNW 13 21 1006.1 - 0.4 - - - - - - -
22/03:00pm 23.9 W 14 20 1006.7 - 0.4 - - - - - - -
22/02:31pm 27.8 WNW 15 25 1006.2 - 0.2 - - - - - - -
22/02:30pm 28.5 WNW 15 22 1006.2 - 0.2 - - - - - - -
22/02:00pm 26.4 NW 13 18 1006.4 - 0.2 - - - - - - -
22/01:30pm 28.0 NW 14 19 1006.0 - 0.2 - - - - - - -
22/01:00pm 29.5 WSW 7 20 1005.7 - 0.2 - - - - - - -
22/12:30pm 27.1 N 7 10 1006.2 - 0.2 - - - - - - -
22/12:00pm 26.4 N 12 16 1006.5 - 0.0 - - - - - - -
22/11:31am 25.6 N 15 26 1006.6 - 0.0 - - - - - - -
22/11:30am 25.6 N 16 25 1006.7 - 0.0 - - - - - - -
22/11:23am 25.1 N 15 25 1006.3 - 0.0 - - - - - - -
22/11:00am 24.2 N 14 20 1006.7 - 0.0 - - - - - - -
22/10:30am 24.4 N 14 21 1006.6 - 0.0 - - - - - - -
22/10:00am 22.4 N 15 22 1007.1 - 0.0 - - - - - - -
22/09:30am 23.4 N 15 19 1006.9 - 0.0 - - - - - - -
22/09:00am 21.3 N 9 15 1007.3 - 0.0 Fine Cloudy 12 - - - -
22/08:30am 20.3 WNW 5 8 1007.2 - 0.0 - - - - - - -
22/08:00am 18.9 ESE 1 5 1007.8 - 0.0 - - - - - - -
22/07:30am 19.3 W 9 15 1008.3 - 0.0 - - - - - - -
22/07:18am 20.0 S 7 9 1008.6 - 0.0 - - - - - - -
22/07:00am 20.1 SE 12 13 1006.5 - 0.0 - - - - - - -
22/06:30am 19.3 S 9 11 1006.2 - 0.0 - - - - - - -
22/06:00am 19.9 NW 3 5 1006.2 - 0.0 - - - - - - -
22/05:30am 19.6 NE 12 15 1005.1 - 0.0 - - - - - - -
22/05:00am 19.2 NE 14 16 1005.2 - 0.0 - - - - - - -
22/04:30am 19.0 NNE 12 15 1005.4 - 0.0 - - - - - - -
22/04:00am 18.8 NNE 12 15 1005.1 - 0.0 - - - - - - -
22/03:30am 18.4 NNE 11 15 1005.5 - 0.0 - - - - - - -
22/03:00am 18.2 NNE 13 15 1005.4 - 0.0 - - - - - - -
22/02:30am 18.2 N 14 19 1005.7 - 0.0 - - - - - - -
22/02:00am 18.1 NNE 12 16 1006.3 - 0.0 - - - - - - -
22/01:30am 17.9 NNE 11 14 1006.9 - 0.0 - - - - - - -
22/01:00am 17.8 NNE 12 16 1007.5 - 0.0 - - - - - - -
22/12:30am 18.2 N 12 15 1008.2 - 0.0 - - - - - - -
22/12:00am 17.5 NNE 9 10 1008.8 - 0.0 - - - - - - -
 
Date/Time
CDT
Temp

°C
Wind Pressure Rain
since 9am
mm
Weather Cloud Vis
km
Sea
Height
m
Swell
Dir
 
Speed
knots
Gust
knots
hPa Trend Height
m
Period
s
Dir
21/11:30pm 17.3 NNE 9 11 1009.2 - 0.0 - - - - - - -
21/11:00pm 17.5 N 8 9 1009.8 - 0.0 - - - - - - -
21/10:30pm 17.6 N 7 8 1010.3 - 0.0 - - - - - - -
21/10:00pm 17.6 N 5 6 1010.7 - 0.0 - - - - - - -
21/09:30pm 17.8 N 6 7 1010.7 - 0.0 - - - - - - -
21/09:00pm 17.2 NNE 6 7 1010.6 - 0.0 - - - - - - -
21/08:30pm 16.8 ENE 5 6 1010.8 - 0.0 - - - - - - -
21/08:00pm 17.4 ESE 7 9 1010.7 - 0.0 - - - - - - -
21/07:30pm 18.3 SSE 7 8 1010.7 - 0.0 - - - - - - -
21/07:00pm 18.5 SE 6 7 1010.7 - 0.0 - - - - - - -
21/06:30pm 18.9 SSE 7 8 1010.5 - 0.0 - - - - - - -
21/06:00pm 19.9 SSE 7 8 1010.2 - 0.0 - - - - - - -
21/05:30pm 20.2 SSE 9 11 1010.2 - 0.0 - - - - - - -
21/05:00pm 19.5 SSE 11 12 1010.4 - 0.0 - - - - - - -
21/04:30pm 19.7 SE 10 13 1010.5 - 0.0 - - - - - - -
21/04:00pm 19.6 SSE 11 13 1010.9 - 0.0 - - - - - - -
21/03:30pm 20.1 SSE 11 13 1011.1 - 0.0 - - - - - - -
21/03:00pm 20.9 SSE 9 11 1011.6 - 0.0 - - - - - - -
21/02:30pm 19.9 S 11 14 1011.6 - 0.0 - - - - - - -
21/02:00pm 20.4 S 10 13 1012.1 - 0.0 - - - - - - -
21/01:30pm 19.8 S 9 11 1012.6 - 0.0 - - - - - - -
21/01:00pm 20.6 S 9 11 1012.4 - 0.0 - - - - - - -
21/12:30pm 19.9 S 9 11 1012.7 - 0.0 - - - - - - -
21/12:00pm 19.6 S 8 9 1012.8 - 0.0 - - - - - - -
21/11:30am 19.1 S 9 11 1013.0 - 0.0 - - - - - - -
21/11:00am 19.0 S 7 9 1013.1 - 0.0 - - - - - - -
21/10:30am 18.1 S 8 10 1013.3 - 0.0 - - - - - - -
21/10:00am 18.0 S 7 9 1013.2 - 0.0 - - - - - - -
21/09:30am 17.8 SSW 8 11 1013.4 - 0.0 - - - - - - -
21/09:00am 17.1 SSW 7 10 1013.3 - 0.0 Haze Partly cloudy 8 - - - -
21/08:30am 16.6 WSW 7 9 1013.1 - 0.0 - - - - - - -
21/08:00am 15.6 W 5 7 1012.8 - 0.0 - - - - - - -
21/07:30am 15.0 WNW 5 7 1012.5 - 0.0 - - - - - - -
21/07:00am 14.2 W 4 6 1012.3 - 0.0 - - - - - - -
21/06:30am 13.8 W 7 8 1012.1 - 0.0 - - - - - - -
21/06:00am 13.3 WNW 6 8 1011.5 - 0.0 - - - - - - -
21/05:30am 13.9 WNW 7 9 1011.4 - 0.0 - - - - - - -
21/05:00am 13.9 W 7 9 1011.6 - 0.0 - - - - - - -
21/04:30am 13.6 WNW 8 11 1011.5 - 0.0 - - - - - - -
21/04:00am 13.7 WNW 7 9 1011.6 - 0.0 - - - - - - -
21/03:30am 13.8 WNW 7 9 1011.3 - 0.0 - - - - - - -
21/03:00am 14.1 WNW 7 9 1010.9 - 0.0 - - - - - - -
21/02:30am 14.8 WNW 7 9 1011.1 - 0.0 - - - - - - -
21/02:00am 15.7 SW 11 13 1011.3 - 0.0 - - - - - - -
21/01:30am 15.9 SW 14 16 1011.4 - 0.0 - - - - - - -
21/01:00am 16.0 SW 14 17 1011.4 - 0.0 - - - - - - -
21/12:30am 16.2 SW 16 20 1011.5 - 0.0 - - - - - - -
21/12:00am 16.2 SW 15 19 1011.3 - 0.0 - - - - - - -
 
Date/Time
CDT
Temp

°C
Wind Pressure Rain
since 9am
mm
Weather Cloud Vis
km
Sea
Height
m
Swell
Dir
 
Speed
knots
Gust
knots
hPa Trend Height
m
Period
s
Dir
20/11:30pm 16.2 SW 14 17 1011.5 - 0.0 - - - - - - -
20/11:00pm 16.3 SW 15 19 1011.4 - 0.0 - - - - - - -
20/10:30pm 16.3 SW 14 19 1011.3 - 0.0 - - - - - - -
20/10:00pm 16.2 SW 18 23 1011.3 - 0.0 - - - - - - -
20/09:30pm 16.7 SW 15 19 1010.9 - 0.0 - - - - - - -
20/09:00pm 16.9 SW 17 22 1010.1 - 0.0 - - - - - - -
20/08:30pm 17.0 SW 17 21 1009.8 - 0.0 - - - - - - -
20/08:00pm 17.3 SW 16 20 1009.2 - 0.0 - - - - - - -
20/07:30pm 17.5 SW 19 23 1008.6 - 0.0 - - - - - - -

Other Formats:

Comma delimited format used in spreadsheet applications
http://www.bom.gov.au/fwo/IDS60701/IDS60701.94677.axf

JavaScript Object Notation format (JSON) in row-major order
http://www.bom.gov.au/fwo/IDS60701/IDS60701.94677.json